createdAt,value
2023-05-07T00:00:16.639Z,6.60
2023-05-07T00:02:19.570Z,6.53
2023-05-07T00:04:22.422Z,5.47
2023-05-07T00:06:27.098Z,6.07
2023-05-07T00:08:29.908Z,6.57
2023-05-07T00:10:33.794Z,5.93
2023-05-07T00:12:37.851Z,5.80
2023-05-07T00:14:41.141Z,6.57
2023-05-07T00:16:43.975Z,6.87
2023-05-07T00:18:47.136Z,6.43
2023-05-07T00:20:49.951Z,6.17
2023-05-07T00:22:53.038Z,6.67
2023-05-07T00:24:55.800Z,6.50
2023-05-07T00:26:59.277Z,6.33
2023-05-07T00:29:03.282Z,6.63
2023-05-07T00:31:06.491Z,6.30
2023-05-07T00:33:09.676Z,6.53
2023-05-07T00:35:12.679Z,5.97
2023-05-07T00:37:15.556Z,6.07
2023-05-07T00:39:18.672Z,6.33
2023-05-07T00:41:21.450Z,7.00
2023-05-07T00:43:24.211Z,5.90
2023-05-07T00:45:29.364Z,6.37
2023-05-07T00:47:32.765Z,5.77
2023-05-07T00:49:39.601Z,6.70
2023-05-07T00:51:42.346Z,7.20
2023-05-07T00:53:45.082Z,6.73
2023-05-07T00:55:48.250Z,6.23
2023-05-07T00:57:51.045Z,6.67
2023-05-07T00:59:54.067Z,6.27
2023-05-07T01:01:58.133Z,6.37
2023-05-07T01:04:01.479Z,6.17
2023-05-07T01:06:04.797Z,6.63
2023-05-07T01:08:07.878Z,6.80
2023-05-07T01:10:11.917Z,6.80
2023-05-07T01:12:14.880Z,6.20
2023-05-07T01:14:17.655Z,6.27
2023-05-07T01:16:21.392Z,5.60
2023-05-07T01:18:26.761Z,6.50
2023-05-07T01:20:29.620Z,6.07
2023-05-07T01:22:34.073Z,6.50
2023-05-07T01:24:37.145Z,6.30
2023-05-07T01:26:40.802Z,6.37
2023-05-07T01:28:43.517Z,7.00
2023-05-07T01:30:46.592Z,6.23
2023-05-07T01:32:51.740Z,6.43
2023-05-07T01:34:55.043Z,6.80
2023-05-07T01:36:58.945Z,6.63
2023-05-07T01:39:03.422Z,6.30
2023-05-07T01:41:06.208Z,6.20
2023-05-07T01:43:08.982Z,5.90
2023-05-07T01:45:12.380Z,6.90
2023-05-07T01:47:15.256Z,5.97
2023-05-07T01:49:18.647Z,6.87
2023-05-07T01:51:22.432Z,5.80
2023-05-07T01:53:25.158Z,6.50
2023-05-07T01:55:29.526Z,7.13
2023-05-07T01:57:32.729Z,5.33
2023-05-07T01:59:35.468Z,6.27
2023-05-07T02:01:38.276Z,6.70
2023-05-07T02:03:41.534Z,7.17
2023-05-07T02:05:44.950Z,6.03
2023-05-07T02:07:47.704Z,6.70
2023-05-07T02:09:50.475Z,6.37
2023-05-07T02:11:54.907Z,6.03
2023-05-07T02:13:57.678Z,6.20
2023-05-07T02:16:00.462Z,6.07
2023-05-07T02:18:04.790Z,7.00
2023-05-07T02:20:14.205Z,5.70
2023-05-07T02:22:17.362Z,6.27
2023-05-07T02:24:20.102Z,6.27
2023-05-07T02:26:23.529Z,6.10
2023-05-07T02:28:28.004Z,5.77
2023-05-07T02:30:30.724Z,6.67
2023-05-07T02:32:33.469Z,6.03
2023-05-07T02:34:36.234Z,5.70
2023-05-07T02:36:39.412Z,5.67
2023-05-07T02:38:42.144Z,6.50
2023-05-07T02:40:44.902Z,6.33
2023-05-07T02:42:47.678Z,6.40
2023-05-07T02:44:52.136Z,6.00
2023-05-07T02:46:54.847Z,5.90
2023-05-07T02:48:57.612Z,6.00
2023-05-07T02:51:00.397Z,5.53
2023-05-07T02:53:03.724Z,6.10
2023-05-07T02:55:07.329Z,6.77
2023-05-07T02:57:10.051Z,5.90
2023-05-07T02:59:12.781Z,5.97
2023-05-07T03:01:17.333Z,6.30
2023-05-07T03:03:20.361Z,6.17
2023-05-07T03:05:23.138Z,6.30
2023-05-07T03:07:26.215Z,6.13
2023-05-07T03:09:29.245Z,5.97
2023-05-07T03:11:31.988Z,5.67
2023-05-07T03:13:34.759Z,6.03
2023-05-07T03:15:37.552Z,6.13
2023-05-07T03:17:42.003Z,5.30
2023-05-07T03:19:44.722Z,6.13
2023-05-07T03:21:47.519Z,6.13
2023-05-07T03:23:50.263Z,5.97
2023-05-07T03:25:53.378Z,5.53
2023-05-07T03:27:56.122Z,6.03
2023-05-07T03:29:58.873Z,5.70
2023-05-07T03:32:01.973Z,5.40
2023-05-07T03:34:06.507Z,5.50
2023-05-07T03:36:09.698Z,5.57
2023-05-07T03:38:12.432Z,4.67
2023-05-07T03:40:15.255Z,5.50
2023-05-07T03:42:18.162Z,5.50
2023-05-07T03:44:21.060Z,5.40
2023-05-07T03:46:23.808Z,5.53
2023-05-07T03:48:26.987Z,4.80
2023-05-07T03:50:31.423Z,5.90
2023-05-07T03:52:34.145Z,5.20
2023-05-07T03:54:36.955Z,5.60
2023-05-07T03:56:39.704Z,5.67
2023-05-07T03:58:42.822Z,6.10
2023-05-07T04:00:45.760Z,6.30
2023-05-07T04:02:48.757Z,5.70
2023-05-07T04:04:51.575Z,6.13
2023-05-07T04:06:56.094Z,5.67
2023-05-07T04:08:58.861Z,5.20
2023-05-07T04:11:01.751Z,6.30
2023-05-07T04:13:04.849Z,5.40
2023-05-07T04:15:09.134Z,5.77
2023-05-07T04:17:11.962Z,5.10
2023-05-07T04:19:14.695Z,5.50
2023-05-07T04:21:17.745Z,6.10
2023-05-07T04:23:23.264Z,5.77
2023-05-07T04:25:27.404Z,5.10
2023-05-07T04:27:40.446Z,5.67
2023-05-07T04:29:44.253Z,5.13
2023-05-07T04:31:47.482Z,5.30
2023-05-07T04:33:50.331Z,5.30
2023-05-07T04:35:53.059Z,5.27
2023-05-07T04:37:56.066Z,5.37
2023-05-07T04:40:01.345Z,4.87
2023-05-07T04:42:04.324Z,4.90
2023-05-07T04:44:07.975Z,4.83
2023-05-07T04:46:10.754Z,5.20
2023-05-07T04:48:15.636Z,4.80
2023-05-07T04:50:20.265Z,5.30
2023-05-07T04:52:23.798Z,4.90
2023-05-07T04:54:27.978Z,5.00
2023-05-07T04:56:32.447Z,4.50
2023-05-07T04:58:35.372Z,5.03
2023-05-07T05:00:38.863Z,4.93
2023-05-07T05:02:41.722Z,4.63
2023-05-07T05:04:45.111Z,4.90
2023-05-07T05:06:47.900Z,4.70
2023-05-07T05:08:50.894Z,4.90
2023-05-07T05:10:53.610Z,4.77
2023-05-07T05:12:58.250Z,4.70
2023-05-07T05:15:01.043Z,4.50
2023-05-07T05:17:03.910Z,5.40
2023-05-07T05:19:06.645Z,4.40
2023-05-07T05:21:09.764Z,4.47
2023-05-07T05:23:12.536Z,4.53
2023-05-07T05:25:15.306Z,3.73
2023-05-07T05:27:18.566Z,4.57
2023-05-07T05:29:22.634Z,4.83
2023-05-07T05:31:26.490Z,4.10
2023-05-07T05:33:29.335Z,5.00
2023-05-07T05:35:32.738Z,4.70
2023-05-07T05:37:35.497Z,4.30
2023-05-07T05:39:38.387Z,4.63
2023-05-07T05:41:41.619Z,4.93
2023-05-07T05:43:44.625Z,5.00
2023-05-07T05:45:48.684Z,5.10
2023-05-07T05:47:51.698Z,5.60
2023-05-07T05:49:55.009Z,4.27
2023-05-07T05:51:57.816Z,4.77
2023-05-07T05:54:03.457Z,4.43
2023-05-07T05:56:06.705Z,5.27
2023-05-07T05:58:09.901Z,5.30
2023-05-07T06:00:14.051Z,4.70
2023-05-07T06:02:18.302Z,4.70
2023-05-07T06:04:21.117Z,4.47
2023-05-07T06:06:24.326Z,3.90
2023-05-07T06:08:27.133Z,4.17
2023-05-07T06:10:31.254Z,4.33
2023-05-07T06:12:34.058Z,4.87
2023-05-07T06:14:36.821Z,4.87
2023-05-07T06:16:39.848Z,4.77
2023-05-07T06:18:46.417Z,4.40
2023-05-07T06:20:49.882Z,4.77
2023-05-07T06:22:52.684Z,4.20
2023-05-07T06:24:56.476Z,4.03
2023-05-07T06:26:59.984Z,4.57
2023-05-07T06:29:03.021Z,4.10
2023-05-07T06:31:14.078Z,4.10
2023-05-07T06:33:16.896Z,4.73
2023-05-07T06:35:21.221Z,4.23
2023-05-07T06:37:24.420Z,4.30
2023-05-07T06:39:27.180Z,3.83
2023-05-07T06:41:29.963Z,3.87
2023-05-07T06:43:32.781Z,3.80
2023-05-07T06:45:36.038Z,3.57
2023-05-07T06:47:38.869Z,4.37
2023-05-07T06:49:42.929Z,4.23
2023-05-07T06:51:47.984Z,3.97
2023-05-07T06:53:51.402Z,4.37
2023-05-07T06:55:54.131Z,4.17
2023-05-07T06:57:59.086Z,4.00
2023-05-07T07:00:01.872Z,4.20
2023-05-07T07:02:05.087Z,3.60
2023-05-07T07:04:07.981Z,4.10
2023-05-07T07:06:10.993Z,4.37
2023-05-07T07:08:15.873Z,3.70
2023-05-07T07:10:18.712Z,3.73
2023-05-07T07:12:21.498Z,4.07
2023-05-07T07:14:24.267Z,3.40
2023-05-07T07:16:27.510Z,4.07
2023-05-07T07:18:31.781Z,3.97
2023-05-07T07:20:34.666Z,3.57
2023-05-07T07:22:37.492Z,4.10
2023-05-07T07:24:41.519Z,4.10
2023-05-07T07:26:44.315Z,3.93
2023-05-07T07:28:49.287Z,3.67
2023-05-07T07:30:52.408Z,3.43
2023-05-07T07:32:56.092Z,3.20
2023-05-07T07:34:59.141Z,4.20
2023-05-07T07:37:06.298Z,3.63
2023-05-07T07:39:10.586Z,3.80
2023-05-07T07:41:16.781Z,3.50
2023-05-07T07:43:22.346Z,4.00
2023-05-07T07:45:25.916Z,3.83
2023-05-07T07:47:29.242Z,3.03
2023-05-07T07:49:32.274Z,2.90
2023-05-07T07:51:35.016Z,3.60
2023-05-07T07:53:37.771Z,3.87
2023-05-07T07:55:41.136Z,3.30
2023-05-07T07:57:48.015Z,3.40
2023-05-07T07:59:51.203Z,3.50
2023-05-07T08:01:56.676Z,3.20
2023-05-07T08:04:00.297Z,3.30
2023-05-07T08:06:03.236Z,3.33
2023-05-07T08:08:07.891Z,3.57
2023-05-07T08:10:11.686Z,3.70
2023-05-07T08:12:15.219Z,3.40
2023-05-07T08:14:20.369Z,3.40
2023-05-07T08:16:24.140Z,3.43
2023-05-07T08:18:29.409Z,3.57
2023-05-07T08:20:32.980Z,3.40
2023-05-07T08:22:36.448Z,3.37
2023-05-07T08:24:39.289Z,3.50
2023-05-07T08:26:42.135Z,3.60
2023-05-07T08:28:45.441Z,3.37
2023-05-07T08:30:49.606Z,3.50
2023-05-07T08:32:53.482Z,3.50
2023-05-07T08:34:57.872Z,3.23
2023-05-07T08:37:04.404Z,3.30
2023-05-07T08:39:07.679Z,3.57
2023-05-07T08:41:12.205Z,3.73
2023-05-07T08:43:15.629Z,3.80
2023-05-07T08:45:18.488Z,3.57
2023-05-07T08:47:22.586Z,3.50
2023-05-07T08:49:26.589Z,3.33
2023-05-07T08:51:29.379Z,3.80
2023-05-07T08:53:32.229Z,3.70
2023-05-07T08:55:35.278Z,3.63
2023-05-07T08:57:40.668Z,2.93
2023-05-07T08:59:44.078Z,3.40
2023-05-07T09:01:47.537Z,3.50
2023-05-07T09:03:52.145Z,3.80
2023-05-07T09:05:55.204Z,3.50
2023-05-07T09:08:01.492Z,3.50
2023-05-07T09:10:05.122Z,3.80
2023-05-07T09:12:08.523Z,3.77
2023-05-07T09:14:11.754Z,3.80
2023-05-07T09:16:17.009Z,3.67
2023-05-07T09:18:20.173Z,3.50
2023-05-07T09:20:34.363Z,3.70
2023-05-07T09:22:39.030Z,3.93
2023-05-07T09:24:42.771Z,4.00
2023-05-07T09:26:45.542Z,3.73
2023-05-07T09:28:49.701Z,4.37
2023-05-07T09:30:52.892Z,4.33
2023-05-07T09:32:55.840Z,3.20
2023-05-07T09:34:58.622Z,4.23
2023-05-07T09:37:03.013Z,3.30
2023-05-07T09:39:06.275Z,3.77
2023-05-07T09:41:11.189Z,3.70
2023-05-07T09:43:16.517Z,3.90
2023-05-07T09:45:26.436Z,3.60
2023-05-07T09:47:29.792Z,3.70
2023-05-07T09:49:34.369Z,4.37
2023-05-07T09:51:42.049Z,4.03
2023-05-07T09:53:48.120Z,3.40
2023-05-07T09:55:51.350Z,3.77
2023-05-07T09:57:55.108Z,4.00
2023-05-07T09:59:58.283Z,3.60
2023-05-07T10:02:05.082Z,3.57
2023-05-07T10:04:09.378Z,3.60
2023-05-07T10:06:12.858Z,3.63
2023-05-07T10:08:17.903Z,3.60
2023-05-07T10:10:22.072Z,4.10
2023-05-07T10:12:25.004Z,3.60
2023-05-07T10:14:28.486Z,3.47
2023-05-07T10:16:31.766Z,4.30
2023-05-07T10:18:36.135Z,3.73
2023-05-07T10:20:39.012Z,4.03
2023-05-07T10:22:44.775Z,3.63
2023-05-07T10:24:47.670Z,3.73
2023-05-07T10:26:52.570Z,3.53
2023-05-07T10:28:58.693Z,3.77
2023-05-07T10:31:10.472Z,3.40
2023-05-07T10:33:13.760Z,3.53
2023-05-07T10:35:18.505Z,3.60
2023-05-07T10:37:21.301Z,3.83
2023-05-07T10:39:26.504Z,3.60
2023-05-07T10:41:30.395Z,3.80
2023-05-07T10:43:44.487Z,4.30
2023-05-07T10:46:02.176Z,3.20
2023-05-07T10:48:27.993Z,3.93
2023-05-07T10:50:32.445Z,3.63
2023-05-07T10:52:35.906Z,3.93
2023-05-07T10:54:40.826Z,3.60
2023-05-07T10:56:44.131Z,4.13
2023-05-07T10:58:48.925Z,4.10
2023-05-07T11:00:53.503Z,3.70
2023-05-07T11:03:09.429Z,4.40
2023-05-07T11:05:21.182Z,3.90
2023-05-07T11:07:31.175Z,4.43
2023-05-07T11:09:56.965Z,4.00
2023-05-07T11:12:00.366Z,3.83
2023-05-07T11:14:05.423Z,4.07
2023-05-07T11:16:18.838Z,4.23
2023-05-07T11:18:22.896Z,4.27
2023-05-07T11:20:47.839Z,4.07
2023-05-07T11:22:50.664Z,4.03
2023-05-07T11:24:53.631Z,3.90
2023-05-07T11:26:56.381Z,4.33
2023-05-07T11:29:01.487Z,3.90
2023-05-07T11:31:05.743Z,4.03
2023-05-07T11:33:08.627Z,4.53
2023-05-07T11:35:11.956Z,4.07
2023-05-07T11:37:18.633Z,4.07
2023-05-07T11:39:27.049Z,3.87
2023-05-07T11:41:36.671Z,3.87
2023-05-07T11:43:41.066Z,3.57
2023-05-07T11:45:44.180Z,4.60
2023-05-07T11:47:48.372Z,4.60
2023-05-07T11:49:52.444Z,3.60
2023-05-07T11:51:57.114Z,4.67
2023-05-07T11:54:00.666Z,4.40
2023-05-07T11:56:08.245Z,4.57
2023-05-07T11:58:12.259Z,4.10
2023-05-07T12:00:18.109Z,3.90
2023-05-07T12:02:21.119Z,4.90
2023-05-07T12:04:25.364Z,4.20
2023-05-07T12:06:29.210Z,3.80
2023-05-07T12:08:33.261Z,4.30
2023-05-07T12:10:37.570Z,4.27
2023-05-07T12:12:44.034Z,4.77
2023-05-07T12:14:47.636Z,4.50
2023-05-07T12:16:51.537Z,4.17
2023-05-07T12:18:56.194Z,4.33
2023-05-07T12:21:01.235Z,4.33
2023-05-07T12:23:04.282Z,4.20
2023-05-07T12:25:08.323Z,4.50
2023-05-07T12:27:12.378Z,4.60
2023-05-07T12:29:15.122Z,4.33
2023-05-07T12:31:18.227Z,4.60
2023-05-07T12:33:28.993Z,4.43
2023-05-07T12:35:31.988Z,5.03
2023-05-07T12:37:37.563Z,4.80
2023-05-07T12:39:46.041Z,4.20
2023-05-07T12:41:55.519Z,3.90
2023-05-07T12:43:59.650Z,3.97
2023-05-07T12:46:03.606Z,4.30
2023-05-07T12:48:07.526Z,4.40
2023-05-07T12:50:11.266Z,4.03
2023-05-07T12:52:14.760Z,4.23
2023-05-07T12:54:31.957Z,4.40
2023-05-07T12:56:37.712Z,4.40
2023-05-07T12:58:40.782Z,4.03
2023-05-07T13:00:44.373Z,4.37
2023-05-07T13:02:48.868Z,4.63
2023-05-07T13:04:52.137Z,4.33
2023-05-07T13:06:54.932Z,3.97
2023-05-07T13:08:58.223Z,4.27
2023-05-07T13:11:04.686Z,3.80
2023-05-07T13:13:08.294Z,3.87
2023-05-07T13:15:12.750Z,3.70
2023-05-07T13:17:15.753Z,4.40
2023-05-07T13:19:18.972Z,4.33
2023-05-07T13:21:21.834Z,4.17
2023-05-07T13:23:24.676Z,4.43
2023-05-07T13:25:27.716Z,3.83
2023-05-07T13:27:32.422Z,4.23
2023-05-07T13:29:35.370Z,4.30
2023-05-07T13:31:43.462Z,4.33
2023-05-07T13:33:48.587Z,4.00
2023-05-07T13:35:51.439Z,4.13
2023-05-07T13:37:55.650Z,4.23
2023-05-07T13:39:58.560Z,3.80
2023-05-07T13:42:01.844Z,3.97
2023-05-07T13:44:06.118Z,3.90
2023-05-07T13:46:09.399Z,3.77
2023-05-07T13:48:13.969Z,4.30
2023-05-07T13:50:19.072Z,3.77
2023-05-07T13:52:22.271Z,3.53
2023-05-07T13:54:26.041Z,4.10
2023-05-07T13:56:29.288Z,3.87
2023-05-07T13:58:32.267Z,2.90
2023-05-07T14:00:36.688Z,3.33
2023-05-07T14:02:39.615Z,3.77
2023-05-07T14:04:42.807Z,3.43
2023-05-07T14:06:45.597Z,3.20
2023-05-07T14:08:48.365Z,3.30
2023-05-07T14:10:51.318Z,3.47
2023-05-07T14:12:55.365Z,3.70
2023-05-07T14:14:58.313Z,3.60
2023-05-07T14:17:05.519Z,3.83
2023-05-07T14:19:08.464Z,3.47
2023-05-07T14:21:11.653Z,3.37
2023-05-07T14:23:15.168Z,3.30
2023-05-07T14:25:18.143Z,4.10
2023-05-07T14:27:21.589Z,6.60
2023-05-07T14:29:24.992Z,9.63
2023-05-07T14:31:28.045Z,8.70
2023-05-07T14:33:32.227Z,6.67
2023-05-07T14:35:39.011Z,7.80
2023-05-07T14:37:42.348Z,16.23
2023-05-07T14:39:49.650Z,15.30
2023-05-07T14:41:55.726Z,11.53
2023-05-07T14:43:59.890Z,16.67
2023-05-07T14:46:02.968Z,19.07
2023-05-07T14:48:06.269Z,17.37
2023-05-07T14:50:10.942Z,16.63
2023-05-07T14:52:13.785Z,17.80
2023-05-07T14:54:19.454Z,15.37
2023-05-07T14:56:23.890Z,22.80
2023-05-07T14:58:26.625Z,24.23
2023-05-07T15:00:29.496Z,20.50
2023-05-07T15:02:32.754Z,24.67
2023-05-07T15:04:40.419Z,18.23
2023-05-07T15:06:49.279Z,20.87
2023-05-07T15:08:52.466Z,23.57
2023-05-07T15:10:56.363Z,22.70
2023-05-07T15:12:59.201Z,19.33
2023-05-07T15:15:02.008Z,19.23
2023-05-07T15:17:04.798Z,18.73
2023-05-07T15:19:08.294Z,17.90
2023-05-07T15:21:11.608Z,23.80
2023-05-07T15:23:16.206Z,17.47
2023-05-07T15:25:19.193Z,16.63
2023-05-07T15:27:23.859Z,18.90
2023-05-07T15:29:26.815Z,19.93
2023-05-07T15:31:32.478Z,19.70
2023-05-07T15:33:35.476Z,20.20
2023-05-07T15:35:39.538Z,22.00
2023-05-07T15:37:42.542Z,15.40
2023-05-07T15:39:47.940Z,21.07
2023-05-07T15:41:50.777Z,18.70
2023-05-07T15:43:53.987Z,17.87
2023-05-07T15:45:57.065Z,15.97
2023-05-07T15:48:00.203Z,18.67
2023-05-07T15:50:03.432Z,14.30
2023-05-07T15:52:06.255Z,16.03
2023-05-07T15:54:09.054Z,18.60
2023-05-07T15:56:13.341Z,15.43
2023-05-07T15:58:20.325Z,15.47
2023-05-07T16:00:24.574Z,15.40
2023-05-07T16:02:27.410Z,15.30
2023-05-07T16:04:30.228Z,16.47
2023-05-07T16:06:33.274Z,18.33
2023-05-07T16:08:36.749Z,15.23
2023-05-07T16:10:39.617Z,14.23
2023-05-07T16:12:43.828Z,18.43
2023-05-07T16:14:51.854Z,13.57
2023-05-07T16:16:56.800Z,15.20
2023-05-07T16:19:00.735Z,16.50
2023-05-07T16:21:03.591Z,13.83
2023-05-07T16:23:06.490Z,14.23
2023-05-07T16:25:10.393Z,16.00
2023-05-07T16:27:16.992Z,13.83
2023-05-07T16:29:23.179Z,14.67
2023-05-07T16:31:27.130Z,14.37
2023-05-07T16:33:31.031Z,13.27
2023-05-07T16:35:33.795Z,11.13
2023-05-07T16:37:41.674Z,12.10
2023-05-07T16:39:47.745Z,15.27
2023-05-07T16:41:51.118Z,10.37
2023-05-07T16:43:54.459Z,12.70
2023-05-07T16:45:58.770Z,10.73
2023-05-07T16:48:03.157Z,13.90
2023-05-07T16:50:06.897Z,11.50
2023-05-07T16:52:09.780Z,11.00
2023-05-07T16:54:12.789Z,10.53
2023-05-07T16:56:17.713Z,8.33
2023-05-07T16:58:20.641Z,10.03
2023-05-07T17:00:23.542Z,10.17
2023-05-07T17:02:29.745Z,8.30
2023-05-07T17:04:33.316Z,12.40
2023-05-07T17:06:37.168Z,8.23
2023-05-07T17:08:42.631Z,9.83
2023-05-07T17:10:47.817Z,9.33
2023-05-07T17:12:51.453Z,11.03
2023-05-07T17:14:56.909Z,7.83
2023-05-07T17:16:59.710Z,11.50
2023-05-07T17:19:04.041Z,9.47
2023-05-07T17:21:07.855Z,11.23
2023-05-07T17:23:10.970Z,10.50
2023-05-07T17:25:15.041Z,9.77
2023-05-07T17:27:20.758Z,10.70
2023-05-07T17:29:26.184Z,9.53
2023-05-07T17:31:40.725Z,9.50
2023-05-07T17:33:43.557Z,8.83
2023-05-07T17:35:47.967Z,9.17
2023-05-07T17:37:52.715Z,7.77
2023-05-07T17:39:57.238Z,10.50
2023-05-07T17:42:03.334Z,8.10
2023-05-07T17:44:08.416Z,10.30
2023-05-07T17:46:15.005Z,9.30
2023-05-07T17:48:18.512Z,8.53
2023-05-07T17:50:23.416Z,8.63
2023-05-07T17:52:28.352Z,8.03
2023-05-07T17:54:31.696Z,5.93
2023-05-07T17:56:39.569Z,9.27
2023-05-07T17:58:58.661Z,7.60
2023-05-07T18:01:02.154Z,8.30
2023-05-07T18:03:09.005Z,7.17
2023-05-07T18:05:16.668Z,9.23
2023-05-07T18:07:23.247Z,8.77
2023-05-07T18:09:30.015Z,6.87
2023-05-07T18:11:35.029Z,11.20
2023-05-07T18:13:38.022Z,6.77
2023-05-07T18:15:41.327Z,6.73
2023-05-07T18:17:45.862Z,8.17
2023-05-07T18:19:50.634Z,5.70
2023-05-07T18:21:55.334Z,8.67
2023-05-07T18:23:58.293Z,8.40
2023-05-07T18:26:03.067Z,6.80
2023-05-07T18:28:07.164Z,7.77
2023-05-07T18:30:11.794Z,5.80
2023-05-07T18:32:16.702Z,7.20
2023-05-07T18:34:21.175Z,7.23
2023-05-07T18:36:26.932Z,7.03
2023-05-07T18:38:30.759Z,5.20
2023-05-07T18:40:34.611Z,6.60
2023-05-07T18:42:38.930Z,6.13
2023-05-07T18:44:42.845Z,5.97
2023-05-07T18:46:47.809Z,5.40
2023-05-07T18:48:53.298Z,5.60
2023-05-07T18:50:57.270Z,5.07
2023-05-07T18:53:01.390Z,5.53
2023-05-07T18:55:05.161Z,6.73
2023-05-07T18:57:08.286Z,4.93
2023-05-07T18:59:14.114Z,4.90
2023-05-07T19:01:17.123Z,5.83
2023-05-07T19:03:20.593Z,4.93
2023-05-07T19:05:25.368Z,5.63
2023-05-07T19:07:29.016Z,5.30
2023-05-07T19:09:33.642Z,4.97
2023-05-07T19:11:39.107Z,4.43
2023-05-07T19:13:48.766Z,7.03
2023-05-07T19:15:52.891Z,5.60
2023-05-07T19:17:56.955Z,5.50
2023-05-07T19:20:03.190Z,4.70
2023-05-07T19:22:07.247Z,5.03
2023-05-07T19:24:10.502Z,5.67
2023-05-07T19:26:14.526Z,6.00
2023-05-07T19:28:18.471Z,4.83
2023-05-07T19:30:21.528Z,5.20
2023-05-07T19:32:26.875Z,4.70
2023-05-07T19:34:32.729Z,5.27
2023-05-07T19:36:38.146Z,5.00
2023-05-07T19:38:40.903Z,5.23
2023-05-07T19:40:44.262Z,4.40
2023-05-07T19:42:47.583Z,5.00
2023-05-07T19:44:50.902Z,4.43
2023-05-07T19:46:54.396Z,4.47
2023-05-07T19:49:01.721Z,4.77
2023-05-07T19:51:06.958Z,5.00
2023-05-07T19:53:11.275Z,4.33
2023-05-07T19:55:14.757Z,3.90
2023-05-07T19:57:19.099Z,4.60
2023-05-07T19:59:22.685Z,5.07
2023-05-07T20:01:30.552Z,3.90
2023-05-07T20:03:38.011Z,4.87
2023-05-07T20:05:44.167Z,3.87
2023-05-07T20:07:48.772Z,3.90
2023-05-07T20:09:52.399Z,4.17
2023-05-07T20:12:00.213Z,3.93
2023-05-07T20:14:06.160Z,4.03
2023-05-07T20:16:09.240Z,4.13
2023-05-07T20:18:16.024Z,4.03
2023-05-07T20:20:19.788Z,4.40
2023-05-07T20:22:25.785Z,4.43
2023-05-07T20:24:30.497Z,3.47
2023-05-07T20:26:34.070Z,4.03
2023-05-07T20:28:37.891Z,3.77
2023-05-07T20:30:45.912Z,3.80
2023-05-07T20:32:48.806Z,3.40
2023-05-07T20:34:53.811Z,3.50
2023-05-07T20:36:57.950Z,4.03
2023-05-07T20:39:06.554Z,3.40
2023-05-07T20:41:11.017Z,3.27
2023-05-07T20:43:15.481Z,4.30
2023-05-07T20:45:19.119Z,3.90
2023-05-07T20:47:23.496Z,3.53
2023-05-07T20:49:26.314Z,3.80
2023-05-07T20:51:29.091Z,4.00
2023-05-07T20:53:33.748Z,4.07
2023-05-07T20:55:38.037Z,3.80
2023-05-07T20:57:42.724Z,3.73
2023-05-07T20:59:48.479Z,3.50
2023-05-07T21:01:52.317Z,3.27
2023-05-07T21:03:55.875Z,3.47
2023-05-07T21:06:00.759Z,3.30
2023-05-07T21:08:04.881Z,3.23
2023-05-07T21:10:10.565Z,3.43
2023-05-07T21:12:15.501Z,4.03
2023-05-07T21:14:18.650Z,3.53
2023-05-07T21:16:22.924Z,4.17
2023-05-07T21:18:26.828Z,3.70
2023-05-07T21:20:31.316Z,3.07
2023-05-07T21:22:35.077Z,3.30
2023-05-07T21:24:39.122Z,3.70
2023-05-07T21:26:42.571Z,3.37
2023-05-07T21:28:46.822Z,3.87
2023-05-07T21:30:51.058Z,3.87
2023-05-07T21:32:55.585Z,3.20
2023-05-07T21:35:00.576Z,3.40
2023-05-07T21:37:03.760Z,3.13
2023-05-07T21:39:10.399Z,3.57
2023-05-07T21:41:17.869Z,3.47
2023-05-07T21:43:20.761Z,3.30
2023-05-07T21:45:24.805Z,3.47
2023-05-07T21:47:28.189Z,3.67
2023-05-07T21:49:31.665Z,3.53
2023-05-07T21:51:35.824Z,3.00
2023-05-07T21:53:38.789Z,3.50
2023-05-07T21:55:41.561Z,3.53
2023-05-07T21:58:01.105Z,3.37
2023-05-07T22:00:09.276Z,3.37
2023-05-07T22:02:13.320Z,3.10
2023-05-07T22:04:16.203Z,3.23
2023-05-07T22:06:21.861Z,3.60
2023-05-07T22:08:24.987Z,3.47
2023-05-07T22:10:27.736Z,3.50
2023-05-07T22:12:30.537Z,3.33
2023-05-07T22:14:34.887Z,3.50
2023-05-07T22:16:37.855Z,3.47
2023-05-07T22:18:42.053Z,3.60
2023-05-07T22:20:44.823Z,3.50
2023-05-07T22:22:50.235Z,3.07
2023-05-07T22:24:54.618Z,3.70
2023-05-07T22:26:57.435Z,3.20
2023-05-07T22:29:00.641Z,3.53
2023-05-07T22:31:03.413Z,3.20
2023-05-07T22:33:06.198Z,3.77
2023-05-07T22:35:10.998Z,3.73
2023-05-07T22:37:14.058Z,3.67
2023-05-07T22:39:16.774Z,3.27
2023-05-07T22:41:19.523Z,3.40
2023-05-07T22:43:22.347Z,3.60
2023-05-07T22:45:25.126Z,3.33
2023-05-07T22:47:31.221Z,3.30
2023-05-07T22:49:35.348Z,3.03
2023-05-07T22:51:39.386Z,2.97
2023-05-07T22:53:42.116Z,3.23
2023-05-07T22:55:45.113Z,3.53
2023-05-07T22:57:47.872Z,3.10
2023-05-07T22:59:54.739Z,3.30
2023-05-07T23:01:57.673Z,3.20
2023-05-07T23:04:00.986Z,3.10
2023-05-07T23:06:03.806Z,2.90
2023-05-07T23:08:07.986Z,3.43
2023-05-07T23:10:11.056Z,3.33
2023-05-07T23:12:14.561Z,3.40
2023-05-07T23:14:17.316Z,3.83
2023-05-07T23:16:20.136Z,3.50
2023-05-07T23:18:22.898Z,3.50
2023-05-07T23:20:25.676Z,3.40
2023-05-07T23:22:28.406Z,3.10
2023-05-07T23:24:32.423Z,2.80
2023-05-07T23:26:35.619Z,3.60
2023-05-07T23:28:38.392Z,3.70
2023-05-07T23:30:41.478Z,3.30
2023-05-07T23:32:44.284Z,3.63
2023-05-07T23:34:50.864Z,3.20
2023-05-07T23:36:53.707Z,2.97
2023-05-07T23:38:56.483Z,3.30
2023-05-07T23:41:00.485Z,3.10
2023-05-07T23:43:03.739Z,3.10
2023-05-07T23:45:07.079Z,2.80
2023-05-07T23:47:09.984Z,3.33
2023-05-07T23:49:14.298Z,3.40
2023-05-07T23:51:17.075Z,3.57
2023-05-07T23:53:19.834Z,2.73
2023-05-07T23:55:22.686Z,3.13
2023-05-07T23:57:27.114Z,2.67
2023-05-07T23:59:29.889Z,3.20
